createdAt,value
2018-03-04T00:02:06.275Z,53.97
2018-03-04T00:04:33.832Z,54.97
2018-03-04T00:07:01.307Z,57.38
2018-03-04T00:09:28.849Z,56.20
2018-03-04T00:11:56.430Z,51.72
2018-03-04T00:14:23.955Z,52.83
2018-03-04T00:16:51.468Z,56.17
2018-03-04T00:19:18.931Z,56.70
2018-03-04T00:21:46.426Z,55.55
2018-03-04T00:24:13.934Z,52.22
2018-03-04T00:26:41.447Z,52.83
2018-03-04T00:29:09.163Z,56.15
2018-03-04T00:31:36.718Z,55.70
2018-03-04T00:34:04.195Z,54.00
2018-03-04T00:36:31.678Z,56.47
2018-03-04T00:38:59.198Z,54.53
2018-03-04T00:41:26.679Z,56.72
2018-03-04T00:43:55.372Z,58.85
2018-03-04T00:46:22.943Z,55.72
2018-03-04T00:48:50.426Z,55.95
2018-03-04T00:51:17.944Z,57.95
2018-03-04T00:53:45.462Z,56.67
2018-03-04T00:56:12.962Z,54.42
2018-03-04T00:58:40.801Z,54.08
2018-03-04T01:01:08.350Z,56.60
2018-03-04T01:03:35.825Z,57.15
2018-03-04T01:06:07.374Z,57.67
2018-03-04T01:08:35.159Z,54.33
2018-03-04T01:11:02.724Z,54.55
2018-03-04T01:13:30.244Z,57.08
2018-03-04T01:15:57.741Z,52.85
2018-03-04T01:18:25.981Z,52.95
2018-03-04T01:20:53.454Z,52.90
2018-03-04T01:23:20.976Z,52.95
2018-03-04T01:25:48.499Z,55.88
2018-03-04T01:28:16.858Z,52.95
2018-03-04T01:30:44.455Z,56.47
2018-03-04T01:33:11.274Z,52.95
2018-03-04T01:35:38.744Z,58.38
2018-03-04T01:38:06.253Z,53.63
2018-03-04T01:40:33.833Z,54.58
2018-03-04T01:43:01.440Z,53.20
2018-03-04T01:45:28.967Z,55.55
2018-03-04T01:47:56.503Z,55.20
2018-03-04T01:50:24.019Z,52.83
2018-03-04T01:52:51.508Z,55.12
2018-03-04T01:55:19.095Z,51.35
2018-03-04T01:57:46.578Z,53.40
2018-03-04T02:00:14.119Z,52.90
2018-03-04T02:02:41.588Z,49.63
2018-03-04T02:05:09.105Z,52.50
2018-03-04T02:07:36.568Z,49.28
2018-03-04T02:10:04.128Z,48.58
2018-03-04T02:12:31.617Z,49.53
2018-03-04T02:14:59.160Z,50.03
2018-03-04T02:17:26.651Z,49.90
2018-03-04T02:19:54.138Z,49.17
2018-03-04T02:22:21.617Z,49.63
2018-03-04T02:24:49.411Z,50.58
2018-03-04T02:27:16.936Z,47.92
2018-03-04T02:29:44.425Z,48.90
2018-03-04T02:32:12.342Z,47.08
2018-03-04T02:34:39.832Z,47.15
2018-03-04T02:37:07.394Z,49.35
2018-03-04T02:39:34.958Z,47.17
2018-03-04T02:42:02.447Z,47.83
2018-03-04T02:44:30.735Z,48.22
2018-03-04T02:46:58.205Z,47.60
2018-03-04T02:49:25.703Z,46.90
2018-03-04T02:51:53.206Z,44.33
2018-03-04T02:54:20.675Z,44.60
2018-03-04T02:56:48.963Z,46.10
2018-03-04T02:59:16.455Z,44.95
2018-03-04T03:01:43.926Z,44.60
2018-03-04T03:04:11.449Z,44.67
2018-03-04T03:06:38.941Z,44.78
2018-03-04T03:09:06.402Z,46.00
2018-03-04T03:11:33.871Z,44.65
2018-03-04T03:14:01.349Z,46.15
2018-03-04T03:16:29.606Z,44.22
2018-03-04T03:18:57.076Z,44.45
2018-03-04T03:21:24.525Z,44.13
2018-03-04T03:23:51.994Z,44.05
2018-03-04T03:26:19.490Z,44.15
2018-03-04T03:28:46.952Z,45.33
2018-03-04T03:31:14.445Z,44.53
2018-03-04T03:33:41.927Z,44.30
2018-03-04T03:36:09.410Z,42.35
2018-03-04T03:38:37.058Z,44.00
2018-03-04T03:41:04.506Z,43.65
2018-03-04T03:43:31.967Z,42.83
2018-03-04T03:45:59.495Z,41.60
2018-03-04T03:48:27.408Z,43.75
2018-03-04T03:50:54.895Z,40.92
2018-03-04T03:53:22.376Z,44.25
2018-03-04T03:55:49.840Z,44.08
2018-03-04T03:58:17.299Z,44.45
2018-03-04T04:00:44.843Z,44.40
2018-03-04T04:03:12.616Z,44.22
2018-03-04T04:05:40.208Z,42.70
2018-03-04T04:08:07.682Z,42.78
2018-03-04T04:10:35.136Z,42.30
2018-03-04T04:13:02.806Z,39.85
2018-03-04T04:15:30.268Z,42.20
2018-03-04T04:17:57.739Z,42.20
2018-03-04T04:20:25.222Z,42.55
2018-03-04T04:22:52.712Z,45.40
2018-03-04T04:25:20.176Z,43.70
2018-03-04T04:27:47.654Z,44.15
2018-03-04T04:30:15.122Z,41.63
2018-03-04T04:32:42.684Z,42.67
2018-03-04T04:35:10.228Z,43.40
2018-03-04T04:37:37.756Z,41.95
2018-03-04T04:40:05.234Z,43.80
2018-03-04T04:42:32.711Z,44.38
2018-03-04T04:45:00.179Z,42.25
2018-03-04T04:47:27.660Z,44.30
2018-03-04T04:49:55.136Z,42.45
2018-03-04T04:52:22.616Z,40.17
2018-03-04T04:54:50.089Z,43.40
2018-03-04T04:57:17.677Z,41.65
2018-03-04T04:59:45.154Z,38.53
2018-03-04T05:02:12.627Z,40.75
2018-03-04T05:04:40.096Z,42.15
2018-03-04T05:07:07.646Z,40.78
2018-03-04T05:09:35.123Z,40.40
2018-03-04T05:12:02.640Z,40.78
2018-03-04T05:14:30.350Z,41.15
2018-03-04T05:16:57.839Z,38.42
2018-03-04T05:19:25.357Z,41.50
2018-03-04T05:21:52.823Z,40.35
2018-03-04T05:24:20.292Z,41.33
2018-03-04T05:26:47.744Z,39.15
2018-03-04T05:29:16.091Z,40.83
2018-03-04T05:31:43.556Z,41.15
2018-03-04T05:34:11.079Z,39.95
2018-03-04T05:36:38.693Z,39.42
2018-03-04T05:39:06.370Z,41.42
2018-03-04T05:41:33.851Z,39.72
2018-03-04T05:44:01.315Z,39.40
2018-03-04T05:46:29.663Z,39.58
2018-03-04T05:48:57.123Z,39.17
2018-03-04T05:51:24.608Z,37.50
2018-03-04T05:53:52.114Z,40.03
2018-03-04T05:56:19.616Z,41.85
2018-03-04T05:58:47.108Z,41.05
2018-03-04T06:01:14.564Z,43.08
2018-03-04T06:03:42.087Z,42.28
2018-03-04T06:06:09.543Z,43.00
2018-03-04T06:08:37.207Z,41.80
2018-03-04T06:11:04.743Z,42.33
2018-03-04T06:13:32.202Z,44.13
2018-03-04T06:15:59.675Z,40.80
2018-03-04T06:18:27.212Z,42.95
2018-03-04T06:20:54.696Z,42.75
2018-03-04T06:23:22.400Z,43.20
2018-03-04T06:25:49.960Z,42.67
2018-03-04T06:28:17.453Z,42.78
2018-03-04T06:30:44.968Z,41.83
2018-03-04T06:33:12.445Z,44.03
2018-03-04T06:35:39.938Z,43.00
2018-03-04T06:38:07.419Z,42.78
2018-03-04T06:40:35.961Z,44.50
2018-03-04T06:43:03.425Z,43.20
2018-03-04T06:45:30.895Z,44.20
2018-03-04T06:47:58.448Z,42.05
2018-03-04T06:50:25.914Z,44.88
2018-03-04T06:52:53.387Z,44.65
2018-03-04T06:55:20.865Z,41.70
2018-03-04T06:57:48.331Z,42.62
2018-03-04T07:00:15.814Z,42.72
2018-03-04T07:02:43.299Z,44.80
2018-03-04T07:05:10.794Z,43.60
2018-03-04T07:07:38.248Z,44.60
2018-03-04T07:10:05.714Z,44.63
2018-03-04T07:12:33.167Z,43.70
2018-03-04T07:15:00.635Z,41.75
2018-03-04T07:17:28.162Z,43.50
2018-03-04T07:19:55.621Z,43.83
2018-03-04T07:22:23.132Z,45.38
2018-03-04T07:24:50.607Z,43.13
2018-03-04T07:27:18.216Z,44.00
2018-03-04T07:29:45.710Z,43.72
2018-03-04T07:32:13.323Z,45.60
2018-03-04T07:34:40.820Z,45.08
2018-03-04T07:37:08.358Z,44.35
2018-03-04T07:39:35.852Z,43.42
2018-03-04T07:42:03.310Z,39.50
2018-03-04T07:44:31.940Z,42.25
2018-03-04T07:46:59.501Z,41.22
2018-03-04T07:49:27.015Z,45.03
2018-03-04T07:51:54.858Z,43.87
2018-03-04T07:54:22.526Z,45.40
2018-03-04T07:56:50.471Z,43.58
2018-03-04T07:59:17.927Z,41.97
2018-03-04T08:01:45.430Z,43.92
2018-03-04T08:04:12.942Z,42.97
2018-03-04T08:06:40.445Z,42.65
2018-03-04T08:09:07.953Z,45.85
2018-03-04T08:11:35.413Z,43.95
2018-03-04T08:14:02.979Z,46.55
2018-03-04T08:16:30.596Z,46.15
2018-03-04T08:18:58.051Z,45.83
2018-03-04T08:21:25.538Z,44.15
2018-03-04T08:23:53.016Z,45.08
2018-03-04T08:26:32.403Z,45.70
2018-03-04T08:28:59.887Z,43.85
2018-03-04T08:31:27.350Z,45.05
2018-03-04T08:33:54.866Z,46.97
2018-03-04T08:36:22.331Z,48.70
2018-03-04T08:38:49.792Z,47.97
2018-03-04T08:41:17.348Z,46.37
2018-03-04T08:43:44.830Z,46.00
2018-03-04T08:46:12.294Z,44.35
2018-03-04T08:48:39.860Z,44.67
2018-03-04T08:51:07.423Z,50.70
2018-03-04T08:53:34.887Z,48.58
2018-03-04T08:56:02.684Z,48.55
2018-03-04T08:58:30.148Z,45.92
2018-03-04T09:00:57.599Z,46.80
2018-03-04T09:03:25.176Z,48.65
2018-03-04T09:05:52.650Z,48.60
2018-03-04T09:08:20.143Z,45.58
2018-03-04T09:10:47.620Z,46.85
2018-03-04T09:13:15.127Z,49.80
2018-03-04T09:15:42.615Z,50.47
2018-03-04T09:18:10.252Z,47.58
2018-03-04T09:20:37.761Z,49.35
2018-03-04T09:23:05.250Z,49.72
2018-03-04T09:25:32.765Z,50.63
2018-03-04T09:28:00.208Z,51.87
2018-03-04T09:30:27.772Z,51.00
2018-03-04T09:32:55.345Z,50.60
2018-03-04T09:35:22.855Z,51.30
2018-03-04T09:37:50.373Z,51.00
2018-03-04T09:40:17.880Z,49.93
2018-03-04T09:42:45.707Z,50.70
2018-03-04T09:45:13.488Z,49.87
2018-03-04T09:47:40.978Z,50.77
2018-03-04T09:50:08.466Z,52.53
2018-03-04T09:52:35.932Z,55.13
2018-03-04T09:55:03.412Z,52.97
2018-03-04T09:57:30.914Z,51.03
2018-03-04T09:59:58.470Z,54.63
2018-03-04T10:02:26.030Z,52.63
2018-03-04T10:04:53.503Z,50.37
2018-03-04T10:07:21.458Z,53.00
2018-03-04T10:09:48.938Z,51.00
2018-03-04T10:12:16.416Z,52.20
2018-03-04T10:14:44.444Z,51.63
2018-03-04T10:17:11.904Z,53.83
2018-03-04T10:19:39.381Z,54.17
2018-03-04T10:22:06.914Z,52.57
2018-03-04T10:24:34.467Z,53.23
2018-03-04T10:27:01.968Z,52.77
2018-03-04T10:29:29.478Z,53.00
2018-03-04T10:31:56.980Z,50.73
2018-03-04T10:34:24.457Z,51.03
2018-03-04T10:36:51.969Z,52.03
2018-03-04T10:39:19.501Z,54.07
2018-03-04T10:41:47.019Z,52.83
2018-03-04T10:44:15.311Z,55.33
2018-03-04T10:46:42.853Z,51.90
2018-03-04T10:49:10.320Z,52.83
2018-03-04T10:51:37.776Z,53.20
2018-03-04T10:54:05.750Z,52.37
2018-03-04T10:56:33.917Z,51.00
2018-03-04T10:59:01.472Z,53.20
2018-03-04T11:01:29.675Z,53.37
2018-03-04T11:03:57.168Z,52.50
2018-03-04T11:06:25.337Z,50.60
2018-03-04T11:08:52.860Z,50.43
2018-03-04T11:11:20.412Z,52.20
2018-03-04T11:13:47.915Z,52.90
2018-03-04T11:16:15.551Z,50.83
2018-03-04T11:18:43.042Z,58.30
2018-03-04T11:21:10.536Z,57.60
2018-03-04T11:23:38.283Z,54.30
2018-03-04T11:26:06.779Z,53.77
2018-03-04T11:28:34.755Z,54.27
2018-03-04T11:31:02.318Z,54.30
2018-03-04T11:33:29.830Z,52.07
2018-03-04T11:35:57.323Z,51.47
2018-03-04T11:38:26.244Z,53.23
2018-03-04T11:40:54.638Z,51.07
2018-03-04T11:43:24.481Z,51.87
2018-03-04T11:45:52.407Z,48.77
2018-03-04T11:48:19.916Z,49.63
2018-03-04T11:50:47.412Z,51.53
2018-03-04T11:53:14.984Z,53.10
2018-03-04T11:55:42.470Z,54.40
2018-03-04T11:58:10.896Z,51.70
2018-03-04T12:00:38.398Z,54.53
2018-03-04T12:03:07.236Z,51.60
2018-03-04T12:05:34.929Z,53.47
2018-03-04T12:08:02.436Z,52.33
2018-03-04T12:10:30.302Z,53.87
2018-03-04T12:12:57.792Z,57.40
2018-03-04T12:15:25.279Z,58.73
2018-03-04T12:17:52.764Z,57.80
2018-03-04T12:20:20.310Z,57.23
2018-03-04T12:22:47.816Z,57.77
2018-03-04T12:25:15.459Z,57.80
2018-03-04T12:27:43.697Z,54.17
2018-03-04T12:30:12.792Z,55.57
2018-03-04T12:32:40.440Z,55.10
2018-03-04T12:35:08.137Z,56.53
2018-03-04T12:40:12.069Z,60.20
2018-03-04T12:42:39.594Z,54.37
2018-03-04T12:45:07.119Z,60.10
2018-03-04T12:47:35.424Z,57.53
2018-03-04T12:50:02.919Z,57.80
2018-03-04T12:52:30.690Z,58.13
2018-03-04T12:54:58.771Z,56.30
2018-03-04T12:57:26.347Z,55.00
2018-03-04T12:59:53.780Z,56.63
2018-03-04T13:02:21.354Z,55.50
2018-03-04T13:04:48.854Z,58.37
2018-03-04T13:07:16.378Z,59.40
2018-03-04T13:12:16.409Z,57.07
2018-03-04T13:14:44.899Z,56.60
2018-03-04T13:27:14.335Z,54.83
2018-03-04T13:29:43.979Z,57.40
2018-03-04T13:32:12.641Z,56.57
2018-03-04T13:34:41.902Z,58.90
2018-03-04T13:37:10.949Z,57.67
2018-03-04T13:39:40.238Z,55.50
2018-03-04T13:42:09.152Z,57.60
2018-03-04T13:57:28.147Z,55.30
2018-03-04T13:59:56.267Z,58.07
2018-03-04T14:02:23.977Z,61.77
2018-03-04T14:04:51.682Z,62.13
2018-03-04T14:07:19.356Z,64.33
2018-03-04T14:09:46.994Z,63.03
2018-03-04T14:12:14.720Z,62.20
2018-03-04T14:14:42.637Z,67.37
2018-03-04T14:17:10.844Z,64.13
2018-03-04T14:22:34.312Z,70.50
2018-03-04T14:27:39.054Z,102.97
2018-03-04T14:30:06.670Z,101.13
2018-03-04T14:32:34.254Z,67.20
2018-03-04T14:35:01.760Z,80.30
2018-03-04T14:37:29.270Z,82.57
2018-03-04T14:39:56.884Z,79.73
2018-03-04T14:42:24.928Z,143.97
2018-03-04T14:44:54.537Z,81.60
2018-03-04T14:47:22.640Z,112.40
2018-03-04T14:49:52.866Z,98.57
2018-03-04T14:52:21.475Z,95.77
2018-03-04T14:54:51.722Z,88.80
2018-03-04T14:57:19.932Z,79.37
2018-03-04T14:59:51.360Z,70.77
2018-03-04T15:02:19.736Z,70.60
2018-03-04T15:12:33.109Z,72.63
2018-03-04T15:15:01.914Z,70.97
2018-03-04T15:17:29.608Z,76.33
2018-03-04T15:19:58.270Z,74.33
2018-03-04T15:22:26.027Z,75.10
2018-03-04T15:24:53.733Z,79.27
2018-03-04T15:27:21.312Z,75.97
2018-03-04T15:29:49.093Z,76.20
2018-03-04T15:32:17.026Z,71.13
2018-03-04T15:34:46.426Z,73.70
2018-03-04T15:37:16.243Z,71.70
2018-03-04T15:42:17.304Z,76.07
2018-03-04T15:44:45.050Z,74.63
2018-03-04T15:49:58.490Z,69.30
2018-03-04T15:52:32.728Z,74.03
2018-03-04T15:55:00.975Z,76.53
2018-03-04T16:16:06.013Z,77.07
2018-03-04T16:18:45.086Z,76.43
2018-03-04T16:21:12.876Z,76.97
2018-03-04T16:23:40.909Z,75.53
2018-03-04T16:26:09.183Z,75.80
2018-03-04T16:28:37.033Z,74.47
2018-03-04T16:31:04.875Z,74.90
2018-03-04T16:33:33.481Z,73.40
2018-03-04T16:36:01.094Z,71.70
2018-03-04T16:38:29.977Z,73.33
2018-03-04T16:40:57.804Z,71.07
2018-03-04T16:43:25.359Z,74.90
2018-03-04T16:45:52.916Z,71.40
2018-03-04T16:48:20.564Z,75.60
2018-03-04T16:50:48.195Z,74.23
2018-03-04T16:53:15.744Z,76.30
2018-03-04T16:55:43.852Z,73.28
2018-03-04T16:58:11.374Z,73.07
2018-03-04T17:00:38.969Z,73.05
2018-03-04T17:03:07.047Z,71.53
2018-03-04T17:05:34.640Z,72.85
2018-03-04T17:08:02.160Z,70.97
2018-03-04T17:10:30.232Z,70.85
2018-03-04T17:12:57.767Z,71.22
2018-03-04T17:15:25.348Z,69.70
2018-03-04T17:17:52.983Z,72.90
2018-03-04T17:20:20.622Z,71.05
2018-03-04T17:22:48.235Z,73.62
2018-03-04T17:25:15.844Z,71.80
2018-03-04T17:27:43.482Z,76.85
2018-03-04T17:30:11.100Z,75.80
2018-03-04T17:32:38.832Z,71.90
2018-03-04T17:35:07.326Z,77.53
2018-03-04T17:40:46.647Z,75.80
2018-03-04T18:00:32.201Z,87.82
2018-03-04T18:11:57.427Z,88.87
2018-03-04T18:14:25.206Z,99.93
2018-03-04T18:19:26.216Z,95.22
2018-03-04T18:21:54.129Z,96.03
2018-03-04T18:24:23.240Z,96.55
2018-03-04T18:26:50.998Z,91.32
2018-03-04T18:29:22.195Z,93.90
2018-03-04T18:31:54.728Z,93.57
2018-03-04T18:34:23.573Z,102.33
2018-03-04T18:39:24.531Z,100.85
2018-03-04T18:41:52.637Z,102.57
2018-03-04T18:44:20.468Z,100.62
2018-03-04T18:59:58.833Z,87.90
2018-03-04T19:02:26.441Z,93.72
2018-03-04T19:07:34.308Z,100.72
2018-03-04T19:10:40.418Z,93.80
2018-03-04T19:13:18.463Z,85.82
2018-03-04T19:18:21.739Z,86.35
2018-03-04T19:20:49.399Z,86.05
2018-03-04T19:23:21.941Z,85.75
2018-03-04T19:25:49.734Z,86.15
2018-03-04T19:28:17.726Z,83.80
2018-03-04T19:30:47.194Z,88.85
2018-03-04T19:33:15.004Z,84.85
2018-03-04T19:35:43.228Z,83.47
2018-03-04T19:38:11.042Z,87.30
2018-03-04T19:40:38.668Z,86.28
2018-03-04T19:43:06.348Z,84.85
2018-03-04T19:45:34.078Z,84.75
2018-03-04T19:48:01.901Z,87.78
2018-03-04T19:50:30.823Z,82.72
2018-03-04T19:52:58.825Z,84.72
2018-03-04T19:55:26.388Z,85.60
2018-03-04T19:57:55.727Z,88.82
2018-03-04T20:00:23.610Z,84.07
2018-03-04T20:02:51.267Z,83.75
2018-03-04T20:05:23.674Z,81.80
2018-03-04T20:07:52.656Z,83.40
2018-03-04T20:12:55.807Z,77.25
2018-03-04T20:15:23.725Z,80.93
2018-03-04T20:17:51.807Z,77.40
2018-03-04T20:20:19.686Z,77.80
2018-03-04T20:22:47.340Z,73.82
2018-03-04T20:25:16.201Z,71.95
2018-03-04T20:27:44.428Z,74.90
2018-03-04T20:30:15.076Z,70.68
2018-03-04T20:32:45.565Z,66.53
2018-03-04T20:41:05.481Z,65.60
2018-03-04T20:49:35.157Z,65.00
2018-03-04T21:04:04.440Z,64.22
2018-03-04T21:12:42.027Z,65.32
2018-03-04T21:15:11.082Z,64.18
2018-03-04T21:17:47.386Z,65.37
2018-03-04T22:14:08.402Z,58.40
2018-03-04T22:19:39.208Z,59.10
2018-03-04T22:24:57.717Z,53.30
2018-03-04T22:27:25.223Z,57.22
2018-03-04T22:29:52.974Z,58.22
2018-03-04T22:32:20.515Z,55.78
2018-03-04T22:34:48.009Z,58.55
2018-03-04T22:37:15.540Z,56.22
2018-03-04T22:39:43.019Z,59.92
2018-03-04T22:42:10.611Z,60.45
2018-03-04T22:44:38.155Z,58.08
2018-03-04T22:47:05.609Z,57.42
2018-03-04T22:49:34.154Z,56.30
2018-03-04T22:52:01.636Z,58.97
2018-03-04T22:54:29.115Z,57.28
2018-03-04T22:56:56.579Z,54.15
2018-03-04T22:59:24.087Z,55.63
2018-03-04T23:01:52.295Z,52.30
2018-03-04T23:04:19.823Z,56.75
2018-03-04T23:06:48.427Z,54.00
2018-03-04T23:09:16.218Z,52.20
2018-03-04T23:11:43.713Z,51.67
2018-03-04T23:14:11.290Z,50.83
2018-03-04T23:16:39.059Z,52.72
2018-03-04T23:19:08.057Z,52.17
2018-03-04T23:21:35.876Z,53.95
2018-03-04T23:24:03.370Z,53.05
2018-03-04T23:26:34.544Z,50.85
2018-03-04T23:29:02.012Z,52.15
2018-03-04T23:31:30.932Z,51.80
2018-03-04T23:33:58.495Z,53.33
2018-03-04T23:36:28.497Z,54.20
2018-03-04T23:38:57.157Z,51.58
2018-03-04T23:41:24.889Z,52.90
2018-03-04T23:43:52.494Z,51.85
2018-03-04T23:46:19.963Z,53.50
2018-03-04T23:48:48.035Z,51.67
2018-03-04T23:51:16.317Z,53.22
2018-03-04T23:53:43.781Z,49.47
2018-03-04T23:56:11.792Z,49.83
2018-03-04T23:58:39.360Z,48.72
